Atlantic Horizon — C6XI2 — position and weather

sailwx.info

Track history (hours):
 
Tides and Currents Weather Stations Pressure Air Temp Water Temp Dewpoint Dewpoint Depression Visibility Wind Speed Wind Dir Waves Ship Positions

Atlantic Horizon

Last reported at 2017-Feb-25 12:09 UTC. Time now 2017-Feb-26 03:28 UTC.
Position N 39°15' W 009°51'.

Length 225 m; draft 12.4 m.

Type: Cargo ship. MMSI: 311010300.

Date/timePositionNaut miles runAvg speedWind from/ knotsBaromVisibWave heightAir tempDewpointWater temp
2017-Feb-25 12:09N 39°15' W 009°51'712.1
2017-Feb-25 11:33N 39°07' W 009°52'1212.1
2017-Feb-25 10:33N 38°55' W 009°52'1211.9
2017-Feb-25 09:33N 38°43' W 009°52'1211.8
2017-Feb-25 08:33N 38°32' W 009°49'1211.8
2017-Feb-25 07:33N 38°20' W 009°45'1211.5
2017-Feb-25 06:33N 38°09' W 009°42'1311.6
2017-Feb-25 05:25N 37°56' W 009°38'1011.7
2017-Feb-25 04:33N 37°46' W 009°36'1311.8
2017-Feb-25 03:29N 37°34' W 009°32'3512.0
2017-Feb-25 00:33N 36°60' W 009°22'18712.3
2017-Feb-24 09:18N 35°58' W 005°42'811.2
2017-Feb-24 08:33N 35°59' W 005°32'10 9.9
2017-Feb-24 07:33N 36°01' W 005°20'1010.3
2017-Feb-24 06:33N 36°03' W 005°07'40613.1
2017-Feb-22 23:28N 37°01' E 003°13'1314.4
2017-Feb-22 22:33N 37°03' E 003°29'1413.3
2017-Feb-22 21:31N 37°05' E 003°46'1313.3
2017-Feb-22 20:33N 37°07' E 004°02'1313.0
2017-Feb-22 19:33N 37°09' E 004°18'1512.7
2017-Feb-22 18:21N 37°11' E 004°37'43912.2
2017-Feb-21 06:12N 36°37' E 013°45'1212.2
2017-Feb-21 05:13N 36°34' E 013°59'812.5
2017-Feb-21 04:33N 36°31' E 014°09'1212.4
2017-Feb-21 03:33N 36°28' E 014°24'1212.5
2017-Feb-21 02:33N 36°24' E 014°39'48511.2
2017-Feb-19 07:28N 37°55' E 024°36'  
Track history (hours):
 
Tides and Currents Weather Stations Pressure Air Temp Water Temp Dewpoint Dewpoint Depression Visibility Wind Speed Wind Dir Waves Ship Positions

Atlantic Horizon

Last reported at 2017-Feb-25 12:09 UTC. Time now 2017-Feb-26 03:28 UTC.
Position N 39°15' W 009°51'.

Length 225 m; draft 12.4 m.

Type: Cargo ship. MMSI: 311010300.

Date/timePositionNaut miles runAvg speedWind from/ knotsBaromVisibWave heightAir tempDewpointWater temp
2017-Feb-25 12:09N 39°15' W 009°51'712.1
2017-Feb-25 11:33N 39°07' W 009°52'1212.1
2017-Feb-25 10:33N 38°55' W 009°52'1211.9
2017-Feb-25 09:33N 38°43' W 009°52'1211.8
2017-Feb-25 08:33N 38°32' W 009°49'1211.8
2017-Feb-25 07:33N 38°20' W 009°45'1211.5
2017-Feb-25 06:33N 38°09' W 009°42'1311.6
2017-Feb-25 05:25N 37°56' W 009°38'1011.7
2017-Feb-25 04:33N 37°46' W 009°36'1311.8
2017-Feb-25 03:29N 37°34' W 009°32'3512.0
2017-Feb-25 00:33N 36°60' W 009°22'18712.3
2017-Feb-24 09:18N 35°58' W 005°42'811.2
2017-Feb-24 08:33N 35°59' W 005°32'10 9.9
2017-Feb-24 07:33N 36°01' W 005°20'1010.3
2017-Feb-24 06:33N 36°03' W 005°07'40613.1
2017-Feb-22 23:28N 37°01' E 003°13'1314.4
2017-Feb-22 22:33N 37°03' E 003°29'1413.3
2017-Feb-22 21:31N 37°05' E 003°46'1313.3
2017-Feb-22 20:33N 37°07' E 004°02'1313.0
2017-Feb-22 19:33N 37°09' E 004°18'1512.7
2017-Feb-22 18:21N 37°11' E 004°37'43912.2
2017-Feb-21 06:12N 36°37' E 013°45'1212.2
2017-Feb-21 05:13N 36°34' E 013°59'812.5
2017-Feb-21 04:33N 36°31' E 014°09'1212.4
2017-Feb-21 03:33N 36°28' E 014°24'1212.5
2017-Feb-21 02:33N 36°24' E 014°39'48511.2
2017-Feb-19 07:28N 37°55' E 024°36'  

Dump ship's entire track history